Data for 04/30/2013

Time Sea-Level Adjusted Pressure Absolute Pressure Temperature Relative Humidity Dew Point   
(mb) (inHg) (mb) (inHg) (C) (F) (%) (C) (F)
00:05 1012 29.88 841 24.83 0.9 33.7 49 -8.5 16.6
00:10 1012 29.88 841 24.83 0.8 33.4 50 -8.5 16.6
00:15 1012 29.88 841 24.83 0.7 33.2 50 -8.6 16.5
00:20 1012 29.88 841 24.83 0.6 33.1 50 -8.6 16.5
00:25 1012 29.88 841 24.83 0.6 33.1 50 -8.6 16.5
00:30 1012 29.88 841 24.83 0.5 32.9 51 -8.5 16.6
00:35 1012 29.88 841 24.83 0.4 32.8 50 -8.9 15.9
00:40 1012 29.88 841 24.83 0.5 32.8 52 -8.4 16.9
00:45 1012 29.88 841 24.83 0.4 32.7 51 -8.6 16.4
00:50 1012 29.88 841 24.83 0.3 32.5 51 -8.8 16.2
00:55 1012 29.88 841 24.83 0.2 32.3 50 -9 15.7
01:00 1012 29.88 841 24.83 0.3 32.5 48 -9.6 14.7
01:05 1012 29.88 841 24.83 0.4 32.6 48 -9.5 14.9
01:10 1012 29.88 842 24.86 0.4 32.6 48 -9.5 15
01:15 1012 29.88 841 24.83 0.4 32.6 48 -9.6 14.8
01:20 1012 29.88 841 24.83 0.4 32.7 47 -9.5 14.8
01:25 1012 29.88 842 24.86 0.2 32.3 50 -9.1 15.7
01:30 1012 29.88 842 24.86 0 32 50 -9.2 15.5
01:35 1012 29.88 842 24.86 -0 32 49 -9.4 15
01:40 1012 29.88 842 24.86 0.1 32.1 49 -9.5 14.9
01:45 1012 29.88 842 24.86 0.1 32.3 48 -9.6 14.7
01:50 1012 29.88 842 24.86 0.1 32.3 48 -9.5 14.8
01:55 1012 29.88 842 24.86 0 32.1 48 -9.7 14.5
02:00 1012 29.88 842 24.86 -0 32 47 -10 14
02:05 1012 29.88 842 24.86 0 32 48 -9.8 14.4
02:10 1012 29.88 842 24.86 0.1 32.1 46 -10.3 13.5
02:15 1012 29.88 842 24.86 0.1 32.1 47 -10 14.1
02:20 1012 29.88 842 24.86 -0 32 47 -10.1 13.8
02:25 1012 29.88 842 24.86 -0 32 46 -10.3 13.4
02:30 1012 29.88 842 24.86 0 32 48 -9.8 14.4
02:35 1012 29.88 842 24.86 -0 31.9 47 -10 14
02:40 1012 29.88 842 24.86 -0.1 31.8 48 -9.7 14.5
02:45 1013 29.91 842 24.86 -0.1 31.8 49 -9.5 14.9
02:50 1013 29.91 842 24.86 -0.1 31.8 50 -9.5 15
02:55 1013 29.91 842 24.86 -0.2 31.7 50 -9.4 15.2
03:00 1013 29.91 842 24.86 -0.2 31.7 50 -9.4 15
03:05 1013 29.91 842 24.86 -0.2 31.6 49 -9.6 14.8
03:10 1013 29.91 842 24.86 -0.2 31.6 49 -9.6 14.6
03:15 1013 29.91 842 24.86 -0.3 31.5 50 -9.4 15
03:20 1013 29.91 842 24.86 -0.4 31.3 51 -9.4 15.1
03:25 1013 29.91 842 24.86 -0.5 31.1 51 -9.5 14.8
03:30 1013 29.91 842 24.86 -0.6 30.9 50 -9.7 14.5
03:35 1013 29.91 842 24.86 -0.6 30.9 50 -9.9 14.2
03:40 1013 29.91 842 24.86 -0.6 30.9 49 -9.9 14.1
03:45 1013 29.91 842 24.86 -0.6 31 50 -9.9 14.2
03:50 1013 29.91 842 24.86 -0.6 30.9 50 -9.9 14.1
03:55 1013 29.91 842 24.86 -0.7 30.7 49 -10.1 13.9
04:00 1013 29.91 842 24.86 -0.7 30.7 48 -10.3 13.4
04:05 1013 29.91 842 24.86 -0.7 30.7 49 -10.3 13.5
04:10 1013 29.91 842 24.86 -0.8 30.6 48 -10.4 13.3
04:15 1013 29.91 842 24.86 -1.1 30 49 -10.5 13.1
04:20 1013 29.91 842 24.86 -1.3 29.7 47 -11.2 11.9
04:25 1013 29.91 842 24.86 -1.1 29.9 46 -11.3 11.6
04:30 1013 29.91 842 24.86 -1.1 30 45 -11.7 11
04:35 1013 29.91 842 24.86 -1.1 30 44 -11.7 10.9
04:40 1013 29.91 842 24.86 -0.9 30.3 41 -12.6 9.3
04:45 1013 29.91 842 24.86 -0.8 30.5 41 -12.6 9.4
04:50 1013 29.91 842 24.86 -0.7 30.7 39 -13 8.6
04:55 1013 29.91 843 24.89 -0.7 30.8 40 -12.7 9.2
05:00 1013 29.91 843 24.89 -0.7 30.8 40 -12.7 9.2
05:05 1013 29.91 843 24.89 -0.7 30.7 40 -12.6 9.3
05:10 1013 29.91 843 24.89 -0.8 30.6 41 -12.5 9.4
05:15 1013 29.91 843 24.89 -0.8 30.6 40 -12.7 9.1
05:20 1013 29.91 843 24.89 -0.8 30.6 40 -12.6 9.2
05:25 1013 29.91 843 24.89 -0.8 30.5 41 -12.4 9.6
05:30 1014 29.94 843 24.89 -0.8 30.5 42 -12.3 9.8
05:35 1014 29.94 843 24.89 -0.6 30.9 40 -12.5 9.5
05:40 1014 29.94 843 24.89 -0.3 31.4 39 -12.6 9.3
05:45 1014 29.94 843 24.89 -0.1 31.7 38 -12.7 9.1
05:50 1014 29.94 843 24.89 -0 31.9 38 -12.7 9.1
05:55 1014 29.94 843 24.89 0.2 32.4 37 -12.8 9
06:00 1014 29.94 843 24.89 0.4 32.8 36 -12.9 8.9
06:05 1014 29.94 843 24.89 0.4 32.7 36 -12.9 8.8
06:10 1014 29.94 843 24.89 0.4 32.7 36 -13.2 8.3
06:15 1014 29.94 843 24.89 0.5 32.9 36 -13.1 8.5
06:20 1014 29.94 843 24.89 0.3 32.6 37 -12.9 8.8
06:25 1014 29.94 843 24.89 0.1 32.2 38 -12.7 9.1
06:30 1014 29.94 843 24.89 -0 32 38 -12.8 9
06:35 1014 29.94 844 24.92 0 32 38 -12.7 9.1
06:40 1014 29.94 844 24.92 0 32 38 -12.7 9.2
06:45 1014 29.94 844 24.92 0 32.1 37 -13.1 8.4
06:50 1014 29.94 844 24.92 -0.1 31.9 37 -13.2 8.2
06:55 1014 29.94 844 24.92 0.2 32.3 36 -13.3 8
07:00 1014 29.94 844 24.92 0.3 32.6 34 -13.7 7.4
07:05 1014 29.94 844 24.92 0.6 33.1 34 -13.6 7.5
07:10 1014 29.94 844 24.92 1.2 34.1 33 -13.4 7.8
07:15 1014 29.94 844 24.92 1.7 35.1 31 -13.6 7.5
07:20 1014 29.94 844 24.92 1.6 34.9 31 -13.7 7.4
07:25 1015 29.97 844 24.92 1.7 35.1 31 -13.8 7.2
07:30 1015 29.97 844 24.92 1.9 35.4 30 -14.1 6.6
07:35 1015 29.97 844 24.92 1.7 35.1 30 -14.1 6.6
07:40 1015 29.97 844 24.92 1.9 35.4 29 -14.3 6.3
07:45 1015 29.97 844 24.92 2 35.6 29 -14.3 6.2
07:50 1015 29.97 844 24.92 1.9 35.4 29 -14.3 6.2
07:55 1015 29.97 844 24.92 2.1 35.8 31 -13.5 7.7
08:00 1014 29.94 844 24.92 2.3 36.1 29 -14.2 6.5
08:05 1014 29.94 844 24.92 2.8 37 28 -14.1 6.6
08:10 1014 29.94 844 24.92 2.5 36.6 28 -14.3 6.3
08:15 1015 29.97 844 24.92 2.5 36.5 27 -14.8 5.3
08:20 1015 29.97 844 24.92 2.3 36.2 27 -14.7 5.6
08:25 1015 29.97 844 24.92 2.2 36 27 -14.8 5.4
08:30 1015 29.97 844 24.92 2.8 37.1 27 -14.6 5.7
08:35 1015 29.97 844 24.92 3 37.4 25 -15.2 4.7
08:40 1015 29.97 844 24.92 3.2 37.7 24 -15.6 3.9
08:45 1015 29.97 844 24.92 3 37.4 24 -16 3.3
08:50 1015 29.97 844 24.92 3.5 38.4 23 -16 3.1
08:55 1014 29.94 844 24.92 4 39.1 22 -15.7 3.7
09:00 1014 29.94 844 24.92 3.5 38.4 23 -15.6 4
09:05 1015 29.97 844 24.92 3.1 37.6 23 -16.2 2.8
09:10 1015 29.97 844 24.92 3.4 38.1 23 -16 3.2
09:15 1015 29.97 844 24.92 4.1 39.4 22 -16 3.3
09:20 1015 29.97 844 24.92 4 39.2 21 -16.6 2.2
09:25 1015 29.97 844 24.92 4.2 39.6 21 -16.1 3
09:30 1015 29.97 844 24.92 4.3 39.8 20 -16.5 2.2
09:35 1015 29.97 844 24.92 4.1 39.4 19 -17.3 0.8
09:40 1015 29.97 844 24.92 4 39.2 21 -16.6 2.2
09:45 1015 29.97 844 24.92 4.3 39.8 20 -16.6 2.1
09:50 1014 29.94 844 24.92 4 39.2 22 -16.1 3
09:55 1014 29.94 844 24.92 4.2 39.6 21 -16.3 2.6
10:00 1015 29.97 844 24.92 4.8 40.6 19 -16.9 1.6
10:05 1015 29.97 844 24.92 4.8 40.7 20 -16.3 2.7
10:10 1015 29.97 844 24.92 4.9 40.9 20 -16.6 2.2
10:15 1015 29.97 844 24.92 4.5 40.1 20 -16.7 1.9
10:20 1015 29.97 844 24.92 3.7 38.7 21 -16.7 1.9
10:25 1015 29.97 844 24.92 4.5 40.1 20 -16.9 1.6
10:30 1015 29.97 844 24.92 4.8 40.7 20 -16.7 2
10:35 1015 29.97 844 24.92 5 41 19 -16.8 1.8
10:40 1015 29.97 844 24.92 4.3 39.8 20 -16.8 1.7
10:45 1015 29.97 844 24.92 4.6 40.3 20 -16.7 1.9
10:50 1015 29.97 844 24.92 4.9 40.8 20 -16.1 3
10:55 1015 29.97 844 24.92 5 40.9 20 -16 3.2
11:00 1015 29.97 844 24.92 5.6 42 20 -16 3.2
11:05 1015 29.97 844 24.92 6.1 43 16 -18 -0.3
11:10 1015 29.97 844 24.92 5.9 42.7 17 -17.2 1.1
11:15 1015 29.97 844 24.92 5.8 42.5 19 -16.3 2.6
11:20 1015 29.97 844 24.92 5.1 41.2 20 -15.9 3.3
11:25 1015 29.97 844 24.92 4.7 40.5 21 -16.1 2.9
11:30 1015 29.97 844 24.92 5.9 42.7 19 -16 3.1
11:35 1015 29.97 844 24.92 6.3 43.3 19 -15.5 4
11:40 1015 29.97 844 24.92 5.3 41.6 20 -15.9 3.5
11:45 1015 29.97 844 24.92 5.5 41.9 19 -16.5 2.3
11:50 1015 29.97 844 24.92 5.7 42.2 18 -16.9 1.6
11:55 1015 29.97 844 24.92 4.8 40.6 21 -16.1 3
12:00 1015 29.97 844 24.92 5.6 42 17 -17.6 0.4
12:05 1015 29.97 844 24.92 6.3 43.3 15 -18.5 -1.3
12:10 1015 29.97 844 24.92 6.3 43.4 15 -18.6 -1.6
12:15 1015 29.97 844 24.92 6.1 42.9 18 -16.4 2.4
12:20 1015 29.97 844 24.92 5.8 42.5 17 -17.6 0.2
12:25 1015 29.97 844 24.92 6.5 43.7 17 -16.9 1.6
12:30 1015 29.97 844 24.92 6.2 43.1 16 -18.1 -0.6
12:35 1015 29.97 844 24.92 6.5 43.6 16 -18.1 -0.5
12:40 1015 29.97 844 24.92 6.9 44.4 15 -18.3 -1
12:45 1015 29.97 844 24.92 6.9 44.4 14 -18.5 -1.4
12:50 1015 29.97 844 24.92 5.7 42.3 15 -19.5 -3
12:55 1015 29.97 844 24.92 5 41.1 20 -16.2 2.8
13:00 1015 29.97 844 24.92 5.1 41.2 20 -16 3.2
13:05 1015 29.97 844 24.92 5.4 41.7 22 -14.9 5.1
13:10 1015 29.97 844 24.92 4.7 40.4 24 -14.2 6.4
13:15 1015 29.97 844 24.92 3.9 39.1 26 -13.8 7.2
13:20 1015 29.97 844 24.92 4.3 39.7 27 -13.2 8.2
13:25 1015 29.97 844 24.92 3.3 38 29 -13 8.6
13:30 1015 29.97 844 24.92 3 37.4 28 -13.6 7.5
13:35 1015 29.97 844 24.92 3.2 37.7 29 -13.2 8.2
13:40 1015 29.97 844 24.92 3.1 37.7 29 -13.2 8.3
13:45 1015 29.97 844 24.92 2.9 37.2 30 -13 8.7
13:50 1015 29.97 845 24.95 3.2 37.8 27 -13.9 7
13:55 1015 29.97 845 24.95 4.2 39.6 26 -13.5 7.8
14:00 1016 30 845 24.95 3.9 38.9 26 -14 6.8
14:05 1016 30 845 24.95 3.5 38.4 26 -14.1 6.7
14:10 1016 30 845 24.95 3.8 38.8 26 -14.2 6.4
14:15 1016 30 845 24.95 3.6 38.5 26 -14.2 6.5
14:20 1016 30 845 24.95 3.4 38.2 26 -14.2 6.5
14:25 1016 30 845 24.95 4 39.2 25 -14.5 6
14:30 1016 30 845 24.95 4.1 39.4 27 -13.4 7.8
14:35 1016 30 845 24.95 3.6 38.5 31 -11.9 10.5
14:40 1016 30 845 24.95 3.3 38 30 -12.8 9
14:45 1016 30 845 24.95 3.6 38.4 33 -11.1 12
14:50 1016 30 845 24.95 2.6 36.7 30 -13.1 8.3
14:55 1016 30 845 24.95 2.8 37 36 -11 12.2
15:00 1016 30 846 24.98 2.4 36.3 36 -11.3 11.6
15:05 1016 30 846 24.98 2.3 36.2 36 -11.4 11.5
15:10 1016 30 846 24.98 2.7 36.9 38 -10.1 13.8
15:15 1016 30 846 24.98 2.7 36.9 38 -10.4 13.3
15:20 1016 30 846 24.98 3.1 37.5 34 -11.2 11.8
15:25 1017 30.03 846 24.98 3.3 38 33 -11.6 11.2
15:30 1017 30.03 846 24.98 3 37.4 34 -11.5 11.4
15:35 1017 30.03 846 24.98 2.8 37.1 36 -10.9 12.4
15:40 1017 30.03 846 24.98 2.8 37 36 -11 12.2
15:45 1017 30.03 846 24.98 3 37.4 37 -10.5 13.2
15:50 1017 30.03 846 24.98 3 37.5 38 -10.1 13.9
15:55 1017 30.03 846 24.98 2.6 36.7 39 -10.1 13.8
16:00 1017 30.03 846 24.98 2.7 36.9 37 -10.5 13.2
16:05 1017 30.03 846 24.98 2.9 37.3 39 -9.6 14.8
16:10 1017 30.03 847 25.01 2.2 36 44 -8.8 16.1
16:15 1017 30.03 847 25.01 2.2 36 45 -8.6 16.6
16:20 1018 30.06 847 25.01 2.3 36.1 49 -7.3 18.9
16:25 1018 30.06 847 25.01 1.8 35.3 53 -6.7 19.9
16:30 1018 30.06 847 25.01 1.6 34.9 57 -6 21.1
16:35 1018 30.06 847 25.01 1.1 34 62 -5.4 22.3
16:40 1018 30.06 847 25.01 0.8 33.5 66 -4.7 23.5
16:45 1018 30.06 847 25.01 0.3 32.6 72 -4.1 24.6
16:50 1018 30.06 848 25.04 0.1 32.2 75 -3.9 25.1
16:55 1018 30.06 848 25.04 -0.1 31.8 77 -3.6 25.5
17:00 1018 30.06 848 25.04 -0.6 31 80 -3.6 25.5
17:05 1019 30.09 848 25.04 -1 30.3 81 -3.8 25.2
17:10 1019 30.09 848 25.04 -0.8 30.6 79 -4 24.9
17:15 1019 30.09 848 25.04 -0.4 31.3 76 -4.2 24.5
17:20 1019 30.09 848 25.04 -0.2 31.6 74 -4.3 24.3
17:25 1019 30.09 848 25.04 -0.4 31.3 76 -4.2 24.5
17:30 1019 30.09 848 25.04 -0.5 31.1 78 -3.9 25
17:35 1019 30.09 848 25.04 -0.3 31.5 75 -4.2 24.5
17:40 1019 30.09 848 25.04 -0.3 31.4 73 -4.6 23.6
17:45 1019 30.09 848 25.04 -0.3 31.5 73 -4.5 23.8
17:50 1019 30.09 848 25.04 -0.3 31.5 73 -4.5 24
17:55 1019 30.09 848 25.04 -0.3 31.4 75 -4.3 24.3
18:00 1019 30.09 848 25.04 -0.7 30.8 76 -4.4 24.1
18:05 1019 30.09 848 25.04 -0.5 31 74 -4.6 23.8
18:10 1019 30.09 848 25.04 -0.6 30.8 76 -4.4 24.1
18:15 1019 30.09 849 25.07 -0.7 30.8 75 -4.6 23.7
18:20 1019 30.09 849 25.07 -0.2 31.6 73 -4.5 23.8
18:25 1020 30.12 849 25.07 -0.4 31.3 74 -4.4 24.1
18:30 1020 30.12 849 25.07 -0.3 31.4 73 -4.7 23.6
18:35 1020 30.12 849 25.07 -0.2 31.7 73 -4.4 24
18:40 1020 30.12 849 25.07 -0.4 31.4 74 -4.4 24
18:45 1020 30.12 849 25.07 -0.4 31.2 75 -4.4 24.1
18:50 1020 30.12 849 25.07 -0.4 31.3 77 -4 24.9
18:55 1020 30.12 849 25.07 -0.6 30.9 78 -4 24.7
19:00 1020 30.12 849 25.07 -0.7 30.8 77 -4.2 24.4
19:05 1020 30.12 849 25.07 -0.6 31 78 -4 24.8
19:10 1020 30.12 849 25.07 -0.3 31.4 76 -4 24.8
19:15 1020 30.12 849 25.07 -0.5 31 77 -4 24.7
19:20 1020 30.12 850 25.1 -0.5 31.2 76 -4.3 24.3
19:25 1020 30.12 850 25.1 -0.7 30.8 80 -3.7 25.4
19:30 1020 30.12 850 25.1 -1.1 30.1 84 -3.4 25.8
19:35 1020 30.12 850 25.1 -1.3 29.6 82 -4 24.9
19:40 1021 30.15 850 25.1 -1.6 29.1 84 -3.9 24.9
19:45 1021 30.15 850 25.1 -1.6 29.2 84 -3.9 25.1
19:50 1021 30.15 850 25.1 -1.6 29.1 85 -3.8 25.1
19:55 1021 30.15 850 25.1 -1.6 29.1 85 -3.8 25.2
20:00 1021 30.15 850 25.1 -1.5 29.3 83 -4 24.8
20:05 1021 30.15 850 25.1 -1.5 29.3 83 -4 24.8
20:10 1021 30.15 850 25.1 -1.4 29.4 83 -4 24.9
20:15 1021 30.15 850 25.1 -1.5 29.4 84 -3.9 25
20:20 1021 30.15 851 25.13 -1.5 29.3 86 -3.6 25.6
20:25 1021 30.15 851 25.13 -1.7 28.9 88 -3.4 25.9
20:30 1022 30.18 851 25.13 -1.9 28.5 91 -3.3 26.1
20:35 1022 30.18 851 25.13 -2 28.4 92 -3.1 26.4
20:40 1022 30.18 851 25.13 -2.1 28.2 94 -3 26.6
20:45 1022 30.18 851 25.13 -2.3 27.9 94 -3.1 26.4
20:50 1022 30.18 851 25.13 -2.4 27.6 95 -3.2 26.3
20:55 1022 30.18 851 25.13 -2.5 27.4 95 -3.3 26.1
21:00 1022 30.18 851 25.13 -2.5 27.4 95 -3.2 26.2
21:05 1022 30.18 851 25.13 -2.6 27.4 95 -3.3 26.1
21:10 1022 30.18 851 25.13 -2.6 27.3 95 -3.3 26
21:15 1022 30.18 851 25.13 -2.6 27.3 95 -3.2 26.2
21:20 1022 30.18 851 25.13 -2.7 27.2 95 -3.3 26.1
21:25 1022 30.18 851 25.13 -2.6 27.3 96 -3.2 26.2
21:30 1022 30.18 852 25.16 -2.6 27.4 96 -3.1 26.4
21:35 1022 30.18 852 25.16 -2.6 27.3 96 -3.2 26.2
21:40 1022 30.18 852 25.16 -2.7 27.2 96 -3.3 26.1
21:45 1022 30.18 852 25.16 -2.7 27.1 96 -3.3 26
21:50 1023 30.21 852 25.16 -2.7 27.1 96 -3.3 26.1
21:55 1023 30.21 852 25.16 -2.7 27.1 96 -3.3 26
22:00 1023 30.21 852 25.16 -2.7 27.1 96 -3.3 26.1
22:05 1023 30.21 852 25.16 -2.7 27.2 96 -3.2 26.2
22:10 1023 30.21 852 25.16 -2.6 27.2 96 -3.2 26.2
22:15 1023 30.21 852 25.16 -2.7 27.2 96 -3.3 26.1
22:20 1023 30.21 852 25.16 -2.7 27.1 96 -3.3 26.1
22:25 1023 30.21 852 25.16 -2.7 27.1 96 -3.3 26.1
22:30 1023 30.21 852 25.16 -2.7 27.1 96 -3.3 26
22:35 1023 30.21 852 25.16 -2.8 26.9 96 -3.4 25.8
22:40 1023 30.21 852 25.16 -2.9 26.7 95 -3.6 25.5
22:45 1023 30.21 852 25.16 -3 26.6 94 -3.8 25.1
22:50 1023 30.21 852 25.16 -3.1 26.5 93 -4 24.8
22:55 1023 30.21 852 25.16 -3.1 26.4 90 -4.5 23.9
23:00 1023 30.21 852 25.16 -3.1 26.4 87 -4.9 23.1
23:05 1023 30.21 852 25.16 -3.1 26.4 86 -5.1 22.8
23:10 1023 30.21 852 25.16 -3.1 26.4 86 -5.1 22.9
23:15 1023 30.21 852 25.16 -3.1 26.4 85 -5.3 22.4
23:20 1023 30.21 852 25.16 -3.1 26.4 85 -5.3 22.5
23:25 1023 30.21 852 25.16 -3.2 26.3 86 -5.3 22.5
23:30 1023 30.21 852 25.16 -3.2 26.3 86 -5.2 22.7
23:35 1023 30.21 852 25.16 -3.2 26.2 86 -5.3 22.5
23:40 1023 30.21 852 25.16 -3.2 26.3 86 -5.2 22.6
23:45 1023 30.21 852 25.16 -3.2 26.3 87 -5 23
23:50 1023 30.21 853 25.19 -3.2 26.3 87 -5.1 22.8
23:55 1023 30.21 853 25.19 -3.1 26.3 85 -5.3 22.5
24:00 1023 30.21 853 25.19 -3.1 26.4 85 -5.4 22.3